createdAt,value
2017-10-26T00:01:21.690Z,13.68
2017-10-26T00:03:48.354Z,16.33
2017-10-26T00:06:14.988Z,17.15
2017-10-26T00:08:41.596Z,16.50
2017-10-26T00:11:08.276Z,14.90
2017-10-26T00:13:34.907Z,15.70
2017-10-26T00:16:01.515Z,15.25
2017-10-26T00:18:28.201Z,16.55
2017-10-26T00:20:54.838Z,14.35
2017-10-26T00:23:21.478Z,18.33
2017-10-26T00:25:48.110Z,19.02
2017-10-26T00:28:14.734Z,21.52
2017-10-26T00:30:41.389Z,21.15
2017-10-26T00:33:08.069Z,23.33
2017-10-26T00:35:34.685Z,18.35
2017-10-26T00:38:01.330Z,18.60
2017-10-26T00:40:28.042Z,18.98
2017-10-26T00:42:54.704Z,15.85
2017-10-26T00:45:21.434Z,16.23
2017-10-26T00:47:48.060Z,15.65
2017-10-26T00:50:14.672Z,20.48
2017-10-26T00:52:41.280Z,17.60
2017-10-26T00:55:07.980Z,17.77
2017-10-26T00:57:34.622Z,16.73
2017-10-26T01:00:01.237Z,15.85
2017-10-26T01:02:27.908Z,15.77
2017-10-26T01:04:54.552Z,13.48
2017-10-26T01:07:21.157Z,16.87
2017-10-26T01:09:47.825Z,18.60
2017-10-26T01:12:14.458Z,17.98
2017-10-26T01:14:41.073Z,19.55
2017-10-26T01:17:07.709Z,17.77
2017-10-26T01:19:34.394Z,23.02
2017-10-26T01:22:01.008Z,19.75
2017-10-26T01:24:27.753Z,19.30
2017-10-26T01:26:54.382Z,20.73
2017-10-26T01:29:21.002Z,18.33
2017-10-26T01:31:47.638Z,17.77
2017-10-26T01:34:14.254Z,17.75
2017-10-26T01:36:40.858Z,18.58
2017-10-26T01:39:07.593Z,19.77
2017-10-26T01:41:34.213Z,18.55
2017-10-26T01:44:00.854Z,19.15
2017-10-26T01:46:27.466Z,21.08
2017-10-26T01:48:54.083Z,20.10
2017-10-26T01:51:20.707Z,20.90
2017-10-26T01:53:47.317Z,20.90
2017-10-26T01:56:13.954Z,20.67
2017-10-26T01:58:40.590Z,20.40
2017-10-26T02:01:07.214Z,19.83
2017-10-26T02:03:33.839Z,20.88
2017-10-26T02:06:00.461Z,22.52
2017-10-26T02:08:27.081Z,20.08
2017-10-26T02:10:53.690Z,20.00
2017-10-26T02:13:20.325Z,20.20
2017-10-26T02:15:46.937Z,18.05
2017-10-26T02:18:13.610Z,20.37
2017-10-26T02:20:40.230Z,20.30
2017-10-26T02:23:06.852Z,19.08
2017-10-26T02:25:33.482Z,20.88
2017-10-26T02:28:00.106Z,26.35
2017-10-26T02:30:32.663Z,27.65
2017-10-26T02:32:59.304Z,23.83
2017-10-26T02:35:26.017Z,23.90
2017-10-26T02:37:52.663Z,23.52
2017-10-26T02:40:19.270Z,22.95
2017-10-26T02:42:45.893Z,21.80
2017-10-26T02:45:12.537Z,19.83
2017-10-26T02:47:39.153Z,18.70
2017-10-26T02:50:05.763Z,17.85
2017-10-26T02:52:32.390Z,18.30
2017-10-26T02:54:59.039Z,21.37
2017-10-26T02:57:25.649Z,17.42
2017-10-26T02:59:52.275Z,17.30
2017-10-26T03:02:18.913Z,18.65
2017-10-26T03:04:45.530Z,16.42
2017-10-26T03:07:12.166Z,16.65
2017-10-26T03:09:38.865Z,16.83
2017-10-26T03:12:05.503Z,16.92
2017-10-26T03:14:32.141Z,18.15
2017-10-26T03:16:58.750Z,16.70
2017-10-26T03:19:25.362Z,19.55
2017-10-26T03:21:51.994Z,18.00
2017-10-26T03:24:18.713Z,19.10
2017-10-26T03:26:45.334Z,18.08
2017-10-26T03:29:11.946Z,17.77
2017-10-26T03:31:38.566Z,19.27
2017-10-26T03:34:05.182Z,19.17
2017-10-26T03:36:31.803Z,17.30
2017-10-26T03:38:58.435Z,18.77
2017-10-26T03:41:25.051Z,19.40
2017-10-26T03:43:51.711Z,18.30
2017-10-26T03:46:18.450Z,18.83
2017-10-26T03:48:45.066Z,18.92
2017-10-26T03:51:11.679Z,20.02
2017-10-26T03:53:38.306Z,17.95
2017-10-26T03:56:04.926Z,16.62
2017-10-26T03:58:31.542Z,19.83
2017-10-26T04:00:58.175Z,17.48
2017-10-26T04:03:24.782Z,17.70
2017-10-26T04:05:51.399Z,18.48
2017-10-26T04:08:18.025Z,19.25
2017-10-26T04:10:44.762Z,21.20
2017-10-26T04:13:11.381Z,17.42
2017-10-26T04:15:38.037Z,17.48
2017-10-26T04:18:04.678Z,20.20
2017-10-26T04:20:31.290Z,18.40
2017-10-26T04:22:57.928Z,21.80
2017-10-26T04:25:24.542Z,21.15
2017-10-26T04:27:51.218Z,17.92
2017-10-26T04:30:17.854Z,18.70
2017-10-26T04:32:44.479Z,19.83
2017-10-26T04:35:11.134Z,19.80
2017-10-26T04:37:37.769Z,22.58
2017-10-26T04:40:04.377Z,22.10
2017-10-26T04:42:30.995Z,20.83
2017-10-26T04:44:57.645Z,20.98
2017-10-26T04:47:24.253Z,20.27
2017-10-26T04:49:50.870Z,20.33
2017-10-26T04:52:17.521Z,20.12
2017-10-26T04:54:44.129Z,19.63
2017-10-26T04:57:10.754Z,20.52
2017-10-26T04:59:37.377Z,18.73
2017-10-26T05:02:04.072Z,18.75
2017-10-26T05:04:30.719Z,21.25
2017-10-26T05:06:57.338Z,18.45
2017-10-26T05:09:23.974Z,19.80
2017-10-26T05:11:50.613Z,21.08
2017-10-26T05:14:17.258Z,21.12
2017-10-26T05:16:43.890Z,38.60
2017-10-26T05:19:10.534Z,19.10
2017-10-26T05:21:37.170Z,20.05
2017-10-26T05:24:03.810Z,20.15
2017-10-26T05:26:30.447Z,22.20
2017-10-26T05:28:57.082Z,20.80
2017-10-26T05:31:23.715Z,20.27
2017-10-26T05:33:50.358Z,22.35
2017-10-26T05:36:16.998Z,21.65
2017-10-26T05:38:43.675Z,21.08
2017-10-26T05:41:10.374Z,21.02
2017-10-26T05:43:36.990Z,22.17
2017-10-26T05:46:03.644Z,24.85
2017-10-26T05:48:30.293Z,22.87
2017-10-26T05:50:56.919Z,22.10
2017-10-26T05:53:23.561Z,25.88
2017-10-26T05:55:50.198Z,19.65
2017-10-26T05:58:16.834Z,22.10
2017-10-26T06:00:43.474Z,20.85
2017-10-26T06:03:10.112Z,19.95
2017-10-26T06:05:36.752Z,21.30
2017-10-26T06:08:03.388Z,21.25
2017-10-26T06:10:30.029Z,20.50
2017-10-26T06:12:56.665Z,21.98
2017-10-26T06:15:23.297Z,24.55
2017-10-26T06:17:49.930Z,23.50
2017-10-26T06:20:16.574Z,19.35
2017-10-26T06:22:43.207Z,26.77
2017-10-26T06:25:09.846Z,26.45
2017-10-26T06:27:36.489Z,22.27
2017-10-26T06:30:03.122Z,20.73
2017-10-26T06:32:29.762Z,18.95
2017-10-26T06:34:56.394Z,22.00
2017-10-26T06:37:23.033Z,22.27
2017-10-26T06:39:49.670Z,22.80
2017-10-26T06:42:16.306Z,20.00
2017-10-26T06:44:42.956Z,20.03
2017-10-26T06:47:09.573Z,22.27
2017-10-26T06:49:36.187Z,20.70
2017-10-26T06:52:02.826Z,20.50
2017-10-26T06:54:29.604Z,17.90
2017-10-26T06:56:56.242Z,19.12
2017-10-26T06:59:22.878Z,18.37
2017-10-26T07:01:49.510Z,19.70
2017-10-26T07:04:16.140Z,17.42
2017-10-26T07:06:42.791Z,20.10
2017-10-26T07:09:09.409Z,18.02
2017-10-26T07:11:36.031Z,18.73
2017-10-26T07:14:02.675Z,20.67
2017-10-26T07:16:29.307Z,17.60
2017-10-26T07:18:55.923Z,17.85
2017-10-26T07:21:22.559Z,19.50
2017-10-26T07:23:49.178Z,16.92
2017-10-26T07:26:15.790Z,18.10
2017-10-26T07:28:42.431Z,17.67
2017-10-26T07:31:09.049Z,17.02
2017-10-26T07:33:35.686Z,17.90
2017-10-26T07:36:02.301Z,16.40
2017-10-26T07:38:28.923Z,15.20
2017-10-26T07:40:55.556Z,17.65
2017-10-26T07:43:22.240Z,17.80
2017-10-26T07:45:48.857Z,19.10
2017-10-26T07:48:15.487Z,19.10
2017-10-26T07:50:42.123Z,19.30
2017-10-26T07:53:08.725Z,18.20
2017-10-26T07:55:35.349Z,18.87
2017-10-26T07:58:02.094Z,20.12
2017-10-26T08:00:28.705Z,19.60
2017-10-26T08:02:55.342Z,17.80
2017-10-26T08:05:21.979Z,17.85
2017-10-26T08:07:48.590Z,18.58
2017-10-26T08:10:15.230Z,16.45
2017-10-26T08:12:41.906Z,20.52
2017-10-26T08:15:08.542Z,18.70
2017-10-26T08:17:35.196Z,19.73
2017-10-26T08:20:01.806Z,19.35
2017-10-26T08:22:28.442Z,19.20
2017-10-26T08:24:55.057Z,17.50
2017-10-26T08:27:21.748Z,18.23
2017-10-26T08:29:48.369Z,18.90
2017-10-26T08:32:15.003Z,19.37
2017-10-26T08:34:41.629Z,18.73
2017-10-26T08:37:08.266Z,18.17
2017-10-26T08:39:34.891Z,19.45
2017-10-26T08:42:01.583Z,19.25
2017-10-26T08:44:28.211Z,18.73
2017-10-26T08:46:54.829Z,21.17
2017-10-26T08:49:21.510Z,19.00
2017-10-26T08:51:48.124Z,19.58
2017-10-26T08:54:14.746Z,18.33
2017-10-26T08:56:41.369Z,19.85
2017-10-26T08:59:08.069Z,18.80
2017-10-26T09:01:34.678Z,17.37
2017-10-26T09:04:01.340Z,18.70
2017-10-26T09:06:27.966Z,18.60
2017-10-26T09:08:54.618Z,17.10
2017-10-26T09:11:21.253Z,19.83
2017-10-26T09:13:47.876Z,20.27
2017-10-26T09:16:14.499Z,19.42
2017-10-26T09:18:41.133Z,19.23
2017-10-26T09:21:07.745Z,19.02
2017-10-26T09:23:34.373Z,20.65
2017-10-26T09:26:01.025Z,20.02
2017-10-26T09:28:27.742Z,20.25
2017-10-26T09:30:54.356Z,18.80
2017-10-26T09:33:26.658Z,21.83
2017-10-26T09:35:53.284Z,19.05
2017-10-26T09:38:20.631Z,20.17
2017-10-26T09:40:47.262Z,20.27
2017-10-26T09:43:13.874Z,20.33
2017-10-26T09:45:40.494Z,20.15
2017-10-26T09:48:07.131Z,20.25
2017-10-26T09:50:33.751Z,19.90
2017-10-26T09:53:00.374Z,23.27
2017-10-26T09:55:27.001Z,22.00
2017-10-26T09:57:53.622Z,20.45
2017-10-26T10:00:20.258Z,19.98
2017-10-26T10:02:46.875Z,21.10
2017-10-26T10:05:13.491Z,19.50
2017-10-26T10:07:40.109Z,19.92
2017-10-26T10:10:06.722Z,18.70
2017-10-26T10:12:33.338Z,19.40
2017-10-26T10:14:59.981Z,20.50
2017-10-26T10:17:26.602Z,19.55
2017-10-26T10:19:53.218Z,20.77
2017-10-26T10:22:19.873Z,19.48
2017-10-26T10:24:46.473Z,20.17
2017-10-26T10:27:13.085Z,19.50
2017-10-26T10:29:39.721Z,23.45
2017-10-26T10:32:06.342Z,22.95
2017-10-26T10:34:32.957Z,22.05
2017-10-26T10:36:59.592Z,18.35
2017-10-26T10:39:26.257Z,19.25
2017-10-26T10:41:52.861Z,19.62
2017-10-26T10:44:19.502Z,20.80
2017-10-26T10:46:46.126Z,20.20
2017-10-26T10:49:12.739Z,21.37
2017-10-26T10:51:39.403Z,21.02
2017-10-26T10:54:06.150Z,20.40
2017-10-26T10:56:32.768Z,20.58
2017-10-26T10:59:04.992Z,21.67
2017-10-26T11:01:31.734Z,20.88
2017-10-26T11:03:58.342Z,21.80
2017-10-26T11:06:24.972Z,21.25
2017-10-26T11:08:51.599Z,22.55
2017-10-26T11:11:18.228Z,22.10
2017-10-26T11:13:44.838Z,22.73
2017-10-26T11:16:11.538Z,27.98
2017-10-26T11:18:38.777Z,23.80
2017-10-26T11:21:05.398Z,23.85
2017-10-26T11:23:32.017Z,20.77
2017-10-26T11:25:58.649Z,20.12
2017-10-26T11:28:25.273Z,22.70
2017-10-26T11:30:51.886Z,21.70
2017-10-26T11:33:18.522Z,22.70
2017-10-26T11:35:45.247Z,19.37
2017-10-26T11:38:11.852Z,21.75
2017-10-26T11:40:38.465Z,21.48
2017-10-26T11:43:05.089Z,21.02
2017-10-26T11:45:31.722Z,19.27
2017-10-26T11:47:58.367Z,18.60
2017-10-26T11:50:24.993Z,18.65
2017-10-26T11:52:51.630Z,17.33
2017-10-26T11:55:18.246Z,18.83
2017-10-26T11:57:44.894Z,20.30
2017-10-26T12:00:11.547Z,18.15
2017-10-26T12:02:38.158Z,17.98
2017-10-26T12:05:04.784Z,17.02
2017-10-26T12:07:31.422Z,20.08
2017-10-26T12:09:58.057Z,21.05
2017-10-26T12:12:24.738Z,20.17
2017-10-26T12:14:51.358Z,17.67
2017-10-26T12:17:17.970Z,20.80
2017-10-26T12:19:44.609Z,20.25
2017-10-26T12:22:11.305Z,19.10
2017-10-26T12:24:37.926Z,21.37
2017-10-26T12:27:04.560Z,20.60
2017-10-26T12:29:31.170Z,21.37
2017-10-26T12:31:57.850Z,21.73
2017-10-26T12:34:24.586Z,20.55
2017-10-26T12:36:51.194Z,21.98
2017-10-26T12:39:17.814Z,23.60
2017-10-26T12:41:44.449Z,25.88
2017-10-26T12:44:11.066Z,23.98
2017-10-26T12:46:37.665Z,24.25
2017-10-26T12:49:04.299Z,22.10
2017-10-26T12:51:30.911Z,22.52
2017-10-26T12:53:57.541Z,21.20
2017-10-26T12:56:24.250Z,20.95
2017-10-26T12:58:50.884Z,20.90
2017-10-26T13:01:17.522Z,21.20
2017-10-26T13:03:44.152Z,19.20
2017-10-26T13:06:10.765Z,20.88
2017-10-26T13:08:37.392Z,19.50
2017-10-26T13:11:04.001Z,19.45
2017-10-26T13:13:30.646Z,22.27
2017-10-26T13:15:57.286Z,21.70
2017-10-26T13:18:23.898Z,20.30
2017-10-26T13:20:50.553Z,20.37
2017-10-26T13:23:17.203Z,19.35
2017-10-26T13:25:43.826Z,19.90
2017-10-26T13:28:10.466Z,20.40
2017-10-26T13:30:37.112Z,20.35
2017-10-26T13:33:03.754Z,18.77
2017-10-26T13:35:30.383Z,20.27
2017-10-26T13:37:57.030Z,19.67
2017-10-26T13:40:23.654Z,20.80
2017-10-26T13:42:50.277Z,21.23
2017-10-26T13:45:16.943Z,20.27
2017-10-26T13:47:43.554Z,19.85
2017-10-26T13:50:10.190Z,19.70
2017-10-26T13:52:36.867Z,21.08
2017-10-26T13:55:03.502Z,19.67
2017-10-26T13:57:30.123Z,20.08
2017-10-26T13:59:56.766Z,19.33
2017-10-26T14:02:23.378Z,22.35
2017-10-26T14:04:50.054Z,21.35
2017-10-26T14:07:16.699Z,19.80
2017-10-26T14:09:43.307Z,19.75
2017-10-26T14:12:10.788Z,18.08
2017-10-26T14:14:37.421Z,20.58
2017-10-26T14:17:04.041Z,21.05
2017-10-26T14:19:30.681Z,21.30
2017-10-26T14:21:57.311Z,22.45
2017-10-26T14:24:23.933Z,19.25
2017-10-26T14:26:50.587Z,20.20
2017-10-26T14:29:17.188Z,22.02
2017-10-26T14:31:43.796Z,22.98
2017-10-26T14:34:10.423Z,19.58
2017-10-26T14:36:37.041Z,20.35
2017-10-26T14:39:03.675Z,21.00
2017-10-26T14:41:30.312Z,22.85
2017-10-26T14:43:56.932Z,21.65
2017-10-26T14:46:23.635Z,22.08
2017-10-26T14:48:50.263Z,21.75
2017-10-26T14:51:16.877Z,24.45
2017-10-26T14:53:43.535Z,21.35
2017-10-26T14:56:10.171Z,19.60
2017-10-26T14:58:36.783Z,21.23
2017-10-26T15:01:03.405Z,22.48
2017-10-26T15:03:30.037Z,24.00
2017-10-26T15:05:56.666Z,20.40
2017-10-26T15:08:23.296Z,20.45
2017-10-26T15:10:49.925Z,20.40
2017-10-26T15:13:16.561Z,24.52
2017-10-26T15:15:43.184Z,33.45
2017-10-26T15:18:09.794Z,29.05
2017-10-26T15:20:36.416Z,23.17
2017-10-26T15:23:03.040Z,24.02
2017-10-26T15:25:29.668Z,21.58
2017-10-26T15:27:56.274Z,20.42
2017-10-26T15:30:22.909Z,21.08
2017-10-26T15:32:49.514Z,22.13
2017-10-26T15:35:16.154Z,25.37
2017-10-26T15:37:42.769Z,23.33
2017-10-26T15:40:09.420Z,21.85
2017-10-26T15:42:36.055Z,23.27
2017-10-26T15:45:02.706Z,23.20
2017-10-26T15:47:29.337Z,22.40
2017-10-26T15:49:55.956Z,22.58
2017-10-26T15:52:22.570Z,23.33
2017-10-26T15:54:49.201Z,24.25
2017-10-26T15:57:15.869Z,23.73
2017-10-26T15:59:42.477Z,22.67
2017-10-26T16:02:09.122Z,23.60
2017-10-26T16:04:35.735Z,25.10
2017-10-26T16:07:02.342Z,25.73
2017-10-26T16:09:28.965Z,23.05
2017-10-26T16:11:55.610Z,23.15
2017-10-26T16:14:22.338Z,20.10
2017-10-26T16:16:48.979Z,22.35
2017-10-26T16:19:15.612Z,23.25
2017-10-26T16:21:42.222Z,21.75
2017-10-26T16:24:08.862Z,22.30
2017-10-26T16:26:35.497Z,22.67
2017-10-26T16:29:02.115Z,21.90
2017-10-26T16:31:28.755Z,20.95
2017-10-26T16:33:55.390Z,23.55
2017-10-26T16:36:21.990Z,24.40
2017-10-26T16:38:48.630Z,21.52
2017-10-26T16:41:15.262Z,24.42
2017-10-26T16:43:41.898Z,22.65
2017-10-26T16:46:08.537Z,24.40
2017-10-26T16:48:35.157Z,23.48
2017-10-26T16:51:01.813Z,25.23
2017-10-26T16:53:28.450Z,23.48
2017-10-26T16:55:55.070Z,23.73
2017-10-26T16:58:21.682Z,24.48
2017-10-26T17:00:48.326Z,22.17
2017-10-26T17:03:14.947Z,23.00
2017-10-26T17:05:41.577Z,24.48
2017-10-26T17:08:08.185Z,25.55
2017-10-26T17:10:34.811Z,23.98
2017-10-26T17:13:01.573Z,23.38
2017-10-26T17:15:28.189Z,23.73
2017-10-26T17:17:54.816Z,23.50
2017-10-26T17:20:21.461Z,22.77
2017-10-26T17:22:48.107Z,21.08
2017-10-26T17:25:14.725Z,20.27
2017-10-26T17:27:41.421Z,22.15
2017-10-26T17:30:08.039Z,19.40
2017-10-26T17:32:34.672Z,19.08
2017-10-26T17:35:01.290Z,19.15
2017-10-26T17:37:27.923Z,19.75
2017-10-26T17:39:54.568Z,18.55
2017-10-26T17:42:21.198Z,18.90
2017-10-26T17:44:47.817Z,19.10
2017-10-26T17:47:14.447Z,17.42
2017-10-26T17:49:41.062Z,19.37
2017-10-26T17:52:07.682Z,18.35
2017-10-26T17:54:34.309Z,17.50
2017-10-26T17:57:01.002Z,18.62
2017-10-26T17:59:27.614Z,18.52
2017-10-26T18:01:54.250Z,17.45
2017-10-26T18:04:20.879Z,18.55
2017-10-26T18:06:47.494Z,17.17
2017-10-26T18:09:14.123Z,16.62
2017-10-26T18:11:40.746Z,18.62
2017-10-26T18:14:07.386Z,18.05
2017-10-26T18:16:33.999Z,18.58
2017-10-26T18:19:00.607Z,17.80
2017-10-26T18:21:27.234Z,17.40
2017-10-26T18:23:53.880Z,17.30
2017-10-26T18:26:20.506Z,17.92
2017-10-26T18:28:47.137Z,15.70
2017-10-26T18:31:13.761Z,15.60
2017-10-26T18:33:40.458Z,16.90
2017-10-26T18:36:07.096Z,17.52
2017-10-26T18:38:33.710Z,23.08
2017-10-26T18:41:00.347Z,22.40
2017-10-26T18:43:26.982Z,20.77
2017-10-26T18:45:53.597Z,16.75
2017-10-26T18:48:20.207Z,14.93
2017-10-26T18:50:46.856Z,17.58
2017-10-26T18:53:13.479Z,20.17
2017-10-26T18:55:40.110Z,19.27
2017-10-26T18:58:06.750Z,19.60
2017-10-26T19:00:33.370Z,22.70
2017-10-26T19:02:59.991Z,23.65
2017-10-26T19:05:26.644Z,21.60
2017-10-26T19:07:53.266Z,18.92
2017-10-26T19:10:19.878Z,21.65
2017-10-26T19:12:46.523Z,23.92
2017-10-26T19:15:13.136Z,30.30
2017-10-26T19:17:39.769Z,28.17
2017-10-26T19:20:06.402Z,16.27
2017-10-26T19:22:33.022Z,15.43
2017-10-26T19:24:59.663Z,18.98
2017-10-26T19:27:26.277Z,22.02
2017-10-26T19:29:52.893Z,19.15
2017-10-26T19:32:19.514Z,16.48
2017-10-26T19:34:46.142Z,17.83
2017-10-26T19:37:12.758Z,18.95
2017-10-26T19:39:39.406Z,17.08
2017-10-26T19:42:06.021Z,17.95
2017-10-26T19:44:32.658Z,18.87
2017-10-26T19:46:59.282Z,17.15
2017-10-26T19:49:25.970Z,18.27
2017-10-26T19:51:52.601Z,18.33
2017-10-26T19:54:19.235Z,20.70
2017-10-26T19:56:45.868Z,19.50
2017-10-26T19:59:12.530Z,19.08
2017-10-26T20:01:39.157Z,21.02
2017-10-26T20:04:05.791Z,20.10
2017-10-26T20:06:32.429Z,19.73
2017-10-26T20:08:59.061Z,20.15
2017-10-26T20:11:25.706Z,19.87
2017-10-26T20:13:52.342Z,19.10
2017-10-26T20:16:18.977Z,19.73
2017-10-26T20:18:45.613Z,18.42
2017-10-26T20:21:12.250Z,19.12
2017-10-26T20:23:38.894Z,21.87
2017-10-26T20:26:05.572Z,21.83
2017-10-26T20:28:32.171Z,21.48
2017-10-26T20:30:58.810Z,22.20
2017-10-26T20:33:25.445Z,22.58
2017-10-26T20:35:52.084Z,18.50
2017-10-26T20:38:18.727Z,19.85
2017-10-26T20:40:45.362Z,18.90
2017-10-26T20:43:11.998Z,18.05
2017-10-26T20:45:38.630Z,19.48
2017-10-26T20:48:05.295Z,17.87
2017-10-26T20:50:37.682Z,18.45
2017-10-26T20:53:10.065Z,20.00
2017-10-26T20:55:42.436Z,18.02
2017-10-26T20:58:14.967Z,19.02
2017-10-26T21:00:47.438Z,20.10
2017-10-26T21:03:19.929Z,20.50
2017-10-26T21:05:52.433Z,17.85
2017-10-26T21:08:39.856Z,18.30
2017-10-26T21:11:12.227Z,18.87
2017-10-26T21:13:44.640Z,20.75
2017-10-26T21:16:11.271Z,21.60
2017-10-26T21:18:37.897Z,21.65
2017-10-26T21:21:04.530Z,21.48
2017-10-26T21:23:31.149Z,19.77
2017-10-26T21:25:57.757Z,20.67
2017-10-26T21:28:24.390Z,21.05
2017-10-26T21:30:51.095Z,20.15
2017-10-26T21:33:17.834Z,20.60
2017-10-26T21:35:44.470Z,19.42
2017-10-26T21:38:11.198Z,17.48
2017-10-26T21:40:37.811Z,20.23
2017-10-26T21:43:04.439Z,20.10
2017-10-26T21:45:31.046Z,21.45
2017-10-26T21:47:57.670Z,22.20
2017-10-26T21:50:24.310Z,23.40
2017-10-26T21:52:51.033Z,23.38
2017-10-26T21:55:17.646Z,24.33
2017-10-26T21:57:44.274Z,25.83
2017-10-26T22:00:10.878Z,23.70
2017-10-26T22:02:37.501Z,25.00
2017-10-26T22:05:04.126Z,25.48
2017-10-26T22:07:30.774Z,22.85
2017-10-26T22:09:57.410Z,24.30
2017-10-26T22:12:24.030Z,22.17
2017-10-26T22:14:50.690Z,23.25
2017-10-26T22:17:17.323Z,19.98
2017-10-26T22:19:43.954Z,17.48
2017-10-26T22:22:10.574Z,17.98
2017-10-26T22:24:37.213Z,17.85
2017-10-26T22:27:03.875Z,17.40
2017-10-26T22:29:30.490Z,17.25
2017-10-26T22:31:57.154Z,19.90
2017-10-26T22:34:23.766Z,19.60
2017-10-26T22:36:50.402Z,18.12
2017-10-26T22:39:17.019Z,20.12
2017-10-26T22:41:43.626Z,16.85
2017-10-26T22:44:10.353Z,17.48
2017-10-26T22:46:36.978Z,17.58
2017-10-26T22:49:03.601Z,18.30
2017-10-26T22:51:30.245Z,18.00
2017-10-26T22:53:56.909Z,17.92
2017-10-26T22:56:23.526Z,17.42
2017-10-26T22:58:50.161Z,19.65
2017-10-26T23:01:16.782Z,19.55
2017-10-26T23:03:43.422Z,19.92
2017-10-26T23:06:10.097Z,18.50
2017-10-26T23:08:36.719Z,18.95
2017-10-26T23:11:03.354Z,20.20
2017-10-26T23:13:29.973Z,18.55
2017-10-26T23:15:56.642Z,18.10
2017-10-26T23:18:23.291Z,18.37
2017-10-26T23:20:49.908Z,20.37
2017-10-26T23:23:16.519Z,18.58
2017-10-26T23:25:43.173Z,19.90
2017-10-26T23:28:09.794Z,19.15
2017-10-26T23:30:36.413Z,18.70
2017-10-26T23:33:03.046Z,18.73
2017-10-26T23:35:29.700Z,17.80
2017-10-26T23:37:56.326Z,19.73
2017-10-26T23:40:22.941Z,21.77
2017-10-26T23:42:49.599Z,22.98
2017-10-26T23:45:16.225Z,25.40
2017-10-26T23:47:42.835Z,22.90
2017-10-26T23:50:09.453Z,23.38
2017-10-26T23:52:36.148Z,23.98
2017-10-26T23:55:02.749Z,23.77
2017-10-26T23:57:29.366Z,25.85
2017-10-26T23:59:56.008Z,26.10
